createdAt,value
2022-12-04T00:01:30.705Z,61.57
2022-12-04T00:06:34.821Z,61.38
2022-12-04T00:11:37.497Z,61.67
2022-12-04T00:16:40.258Z,62.46
2022-12-04T00:21:45.177Z,62.67
2022-12-04T00:26:47.847Z,63.54
2022-12-04T00:31:50.557Z,63.34
2022-12-04T00:36:54.625Z,64.36
2022-12-04T00:41:57.323Z,64.17
2022-12-04T00:46:59.953Z,64.79
2022-12-04T00:52:04.069Z,65.07
2022-12-04T00:57:06.734Z,65.08
2022-12-04T01:02:09.418Z,65.24
2022-12-04T01:07:13.416Z,65.40
2022-12-04T01:12:20.559Z,65.64
2022-12-04T01:17:23.855Z,65.90
2022-12-04T01:22:27.887Z,66.45
2022-12-04T01:27:30.524Z,66.82
2022-12-04T01:32:33.188Z,66.82
2022-12-04T01:37:37.230Z,67.39
2022-12-04T01:42:39.918Z,67.25
2022-12-04T01:47:42.640Z,67.42
2022-12-04T01:52:46.669Z,67.83
2022-12-04T01:57:49.398Z,67.84
2022-12-04T02:02:52.147Z,67.90
2022-12-04T02:07:58.910Z,67.53
2022-12-04T02:13:04.744Z,68.09
2022-12-04T02:18:11.585Z,68.54
2022-12-04T02:23:48.958Z,68.50
2022-12-04T02:28:54.810Z,68.88
2022-12-04T02:34:01.609Z,69.09
2022-12-04T02:39:06.876Z,68.97
2022-12-04T02:44:14.978Z,69.57
2022-12-04T02:49:21.007Z,69.43
2022-12-04T02:54:26.876Z,69.47
2022-12-04T02:59:34.590Z,69.88
2022-12-04T03:04:37.508Z,69.98
2022-12-04T03:09:43.403Z,69.73
2022-12-04T03:14:51.253Z,70.05
2022-12-04T03:19:56.483Z,70.01
2022-12-04T03:24:59.521Z,70.21
2022-12-04T03:30:06.346Z,70.53
2022-12-04T03:35:13.792Z,70.78
2022-12-04T03:40:20.666Z,71.08
2022-12-04T03:45:27.581Z,71.22
2022-12-04T03:50:34.833Z,71.73
2022-12-04T03:55:41.396Z,71.53
2022-12-04T04:00:47.338Z,72.09
2022-12-04T04:05:52.346Z,71.84
2022-12-04T04:10:56.971Z,72.32
2022-12-04T04:16:18.677Z,72.44
2022-12-04T04:21:57.036Z,72.19
2022-12-04T04:27:00.631Z,72.40
2022-12-04T04:32:10.756Z,72.19
2022-12-04T04:37:18.102Z,72.60
2022-12-04T04:42:23.816Z,72.69
2022-12-04T04:47:31.702Z,72.57
2022-12-04T04:52:35.070Z,72.54
2022-12-04T04:57:38.100Z,72.99
2022-12-04T05:02:42.130Z,72.93
2022-12-04T05:07:44.942Z,72.78
2022-12-04T05:12:47.670Z,72.84
2022-12-04T05:17:51.701Z,73.24
2022-12-04T05:22:54.645Z,73.18
2022-12-04T05:27:58.134Z,73.34
2022-12-04T05:33:02.194Z,73.40
2022-12-04T05:38:04.848Z,73.73
2022-12-04T05:43:07.496Z,73.59
2022-12-04T05:48:11.678Z,73.04
2022-12-04T05:53:14.363Z,72.35
2022-12-04T05:58:16.987Z,71.98
2022-12-04T06:03:21.396Z,71.66
2022-12-04T06:08:24.086Z,71.95
2022-12-04T06:13:26.766Z,71.54
2022-12-04T06:18:30.779Z,71.68
2022-12-04T06:23:33.417Z,70.98
2022-12-04T06:28:36.332Z,70.10
2022-12-04T06:33:40.663Z,69.76
2022-12-04T06:38:44.058Z,69.48
2022-12-04T06:43:47.005Z,69.15
2022-12-04T06:48:51.492Z,68.78
2022-12-04T06:53:54.325Z,68.59
2022-12-04T06:58:58.721Z,67.46
2022-12-04T07:04:04.181Z,66.97
2022-12-04T07:09:09.649Z,66.21
2022-12-04T07:14:13.159Z,65.54
2022-12-04T07:19:17.270Z,64.80
2022-12-04T07:24:19.911Z,64.61
2022-12-04T07:29:22.533Z,64.34
2022-12-04T07:34:26.560Z,64.43
2022-12-04T07:39:29.388Z,64.13
2022-12-04T07:44:32.225Z,64.44
2022-12-04T07:49:36.537Z,64.19
2022-12-04T07:54:39.182Z,64.47
2022-12-04T07:59:41.782Z,64.44
2022-12-04T08:04:45.991Z,64.46
2022-12-04T08:09:48.658Z,63.95
2022-12-04T08:14:51.335Z,64.34
2022-12-04T08:19:55.685Z,64.16
2022-12-04T08:24:58.596Z,64.69
2022-12-04T08:30:01.537Z,64.47
2022-12-04T08:35:06.094Z,64.58
2022-12-04T08:40:09.608Z,64.58
2022-12-04T08:45:12.498Z,65.18
2022-12-04T08:51:53.712Z,65.10
2022-12-04T09:02:27.857Z,65.75
2022-12-04T09:07:30.609Z,66.21
2022-12-04T09:12:33.347Z,66.33
2022-12-04T09:17:37.431Z,66.78
2022-12-04T09:23:02.254Z,67.12
2022-12-04T09:28:02.739Z,67.30
2022-12-04T09:33:06.814Z,67.16
2022-12-04T09:38:09.480Z,68.13
2022-12-04T09:43:21.826Z,68.34
2022-12-04T09:48:28.289Z,69.26
2022-12-04T09:53:39.765Z,69.26
2022-12-04T09:58:46.425Z,69.53
2022-12-04T10:03:51.190Z,69.66
2022-12-04T10:08:59.433Z,69.65
2022-12-04T10:14:10.087Z,69.85
2022-12-04T10:19:19.587Z,70.41
2022-12-04T10:24:29.935Z,70.55
2022-12-04T10:29:34.871Z,69.92
2022-12-04T10:34:44.082Z,70.97
2022-12-04T10:39:53.275Z,71.35
2022-12-04T10:44:56.693Z,72.63
2022-12-04T10:50:05.810Z,73.64
2022-12-04T10:55:09.064Z,73.47
2022-12-04T11:00:26.901Z,73.73
2022-12-04T11:05:33.559Z,74.92
2022-12-04T11:10:38.354Z,74.97
2022-12-04T11:15:44.488Z,75.24
2022-12-04T11:20:53.740Z,75.53
2022-12-04T11:26:03.777Z,75.50
2022-12-04T11:31:10.819Z,75.66
2022-12-04T11:36:20.897Z,76.09
2022-12-04T11:41:28.552Z,76.13
2022-12-04T11:46:34.065Z,76.34
2022-12-04T11:51:46.650Z,76.50
2022-12-04T11:56:52.107Z,76.25
2022-12-04T12:02:01.142Z,76.47
2022-12-04T12:07:12.667Z,76.39
2022-12-04T12:12:20.652Z,76.85
2022-12-04T12:17:29.764Z,76.81
2022-12-04T12:22:46.129Z,76.01
2022-12-04T12:28:01.089Z,77.09
2022-12-04T12:33:11.112Z,76.97
2022-12-04T12:38:18.449Z,76.78
2022-12-04T12:43:25.334Z,77.29
2022-12-04T12:48:32.279Z,77.44
2022-12-04T12:53:40.150Z,77.50
2022-12-04T12:58:45.346Z,77.27
2022-12-04T13:03:53.505Z,77.42
2022-12-04T13:09:05.033Z,77.39
2022-12-04T13:14:07.732Z,77.80
2022-12-04T13:19:14.384Z,77.60
2022-12-04T13:24:47.602Z,77.49
2022-12-04T13:30:05.574Z,77.64
2022-12-04T13:35:15.899Z,77.46
2022-12-04T13:40:32.728Z,77.50
2022-12-04T13:45:35.484Z,77.51
2022-12-04T13:50:39.490Z,77.75
2022-12-04T13:55:43.590Z,77.54
2022-12-04T14:00:46.295Z,77.44
2022-12-04T14:05:49.065Z,77.86
2022-12-04T14:11:01.254Z,77.86
2022-12-04T14:16:05.948Z,77.95
2022-12-04T14:21:08.682Z,77.98
2022-12-04T14:26:37.442Z,78.09
2022-12-04T14:31:47.742Z,77.84
2022-12-04T14:36:52.070Z,77.82
2022-12-04T14:42:07.081Z,78.04
2022-12-04T14:47:19.939Z,77.62
2022-12-04T14:52:26.906Z,78.15
2022-12-04T14:57:42.076Z,78.01
2022-12-04T15:02:46.251Z,78.33
2022-12-04T15:07:50.857Z,78.05
2022-12-04T15:12:55.678Z,77.96
2022-12-04T15:18:00.353Z,78.30
2022-12-04T15:23:03.695Z,78.37
2022-12-04T15:28:11.878Z,78.22
2022-12-04T15:33:21.592Z,78.49
2022-12-04T15:38:24.849Z,78.58
2022-12-04T15:43:31.892Z,78.45
2022-12-04T15:48:34.538Z,78.70
2022-12-04T15:53:38.854Z,78.51
2022-12-04T15:58:53.728Z,78.70
2022-12-04T16:03:57.242Z,78.42
2022-12-04T16:09:01.398Z,78.37
2022-12-04T16:14:17.931Z,78.44
2022-12-04T16:19:30.518Z,78.44
2022-12-04T16:24:33.249Z,78.76
2022-12-04T16:29:37.319Z,78.79
2022-12-04T16:34:40.054Z,78.45
2022-12-04T16:39:43.056Z,78.76
2022-12-04T16:44:47.362Z,78.20
2022-12-04T16:49:51.783Z,78.36
2022-12-04T16:54:54.789Z,77.84
2022-12-04T16:59:59.360Z,78.14
2022-12-04T17:05:02.370Z,78.46
2022-12-04T17:10:06.228Z,78.15
2022-12-04T17:15:11.665Z,78.62
2022-12-04T17:20:16.303Z,78.69
2022-12-04T17:25:19.286Z,78.36
2022-12-04T17:30:23.334Z,78.62
2022-12-04T17:35:26.012Z,78.62
2022-12-04T17:40:28.707Z,78.85
2022-12-04T17:45:32.760Z,78.16
2022-12-04T17:50:35.408Z,78.90
2022-12-04T17:55:38.095Z,78.56
2022-12-04T18:00:42.267Z,78.77
2022-12-04T18:05:44.973Z,78.55
2022-12-04T18:10:47.623Z,77.78
2022-12-04T18:15:51.712Z,78.46
2022-12-04T18:21:01.014Z,78.51
2022-12-04T18:26:04.865Z,78.67
2022-12-04T18:31:09.790Z,78.45
2022-12-04T18:36:15.567Z,78.74
2022-12-04T18:41:18.262Z,78.38
2022-12-04T18:46:22.761Z,78.34
2022-12-04T18:51:27.594Z,78.20
2022-12-04T18:56:31.045Z,78.37
2022-12-04T19:01:35.558Z,78.35
2022-12-04T19:06:40.587Z,78.32
2022-12-04T19:11:44.199Z,78.40
2022-12-04T19:16:48.758Z,78.33
2022-12-04T19:21:51.528Z,76.88
2022-12-04T19:26:54.857Z,78.56
2022-12-04T19:31:59.653Z,78.14
2022-12-04T19:37:02.791Z,77.48
2022-12-04T19:42:05.609Z,78.33
2022-12-04T19:47:09.678Z,78.28
2022-12-04T19:52:12.369Z,78.65
2022-12-04T19:57:15.583Z,78.51
2022-12-04T20:02:19.939Z,78.61
2022-12-04T20:07:22.829Z,78.37
2022-12-04T20:12:25.547Z,78.53
2022-12-04T20:17:31.310Z,78.53
2022-12-04T20:22:34.887Z,78.40
2022-12-04T20:27:37.582Z,78.32
2022-12-04T20:32:41.601Z,78.14
2022-12-04T20:37:44.286Z,78.31
2022-12-04T20:42:47.033Z,78.47
2022-12-04T20:47:51.097Z,78.22
2022-12-04T20:52:53.763Z,78.36
2022-12-04T20:57:57.284Z,77.76
2022-12-04T21:03:01.353Z,78.26
2022-12-04T21:08:04.221Z,78.54
2022-12-04T21:13:24.793Z,78.65
2022-12-04T21:18:28.890Z,78.42
2022-12-04T21:23:31.834Z,77.91
2022-12-04T21:28:34.610Z,78.35
2022-12-04T21:33:38.590Z,77.93
2022-12-04T21:38:41.432Z,78.07
2022-12-04T21:43:44.078Z,78.21
2022-12-04T21:48:48.234Z,77.96
2022-12-04T21:53:50.979Z,78.05
2022-12-04T21:58:54.555Z,78.29
2022-12-04T22:03:58.552Z,77.95
2022-12-04T22:09:01.666Z,78.18
2022-12-04T22:14:04.510Z,78.17
2022-12-04T22:19:08.602Z,77.84
2022-12-04T22:24:11.587Z,77.32
2022-12-04T22:29:48.686Z,78.37
2022-12-04T22:34:38.340Z,78.44
2022-12-04T22:39:41.034Z,78.18
2022-12-04T22:44:43.682Z,78.30
2022-12-04T22:49:47.806Z,78.06
2022-12-04T22:54:51.177Z,78.07
2022-12-04T22:59:53.938Z,78.20
2022-12-04T23:04:57.991Z,78.40
2022-12-04T23:10:00.787Z,78.55
2022-12-04T23:15:03.472Z,78.14
2022-12-04T23:20:08.877Z,78.22
2022-12-04T23:25:11.519Z,78.39
2022-12-04T23:30:14.436Z,78.17
2022-12-04T23:35:18.456Z,78.57
2022-12-04T23:40:21.127Z,78.24
2022-12-04T23:45:23.793Z,78.42
2022-12-04T23:50:27.842Z,78.50
2022-12-04T23:55:34.339Z,78.53
